createdAt,value
2022-09-10T00:01:25.032Z,100781.22
2022-09-10T00:03:53.494Z,100781.25
2022-09-10T00:06:21.327Z,100782.13
2022-09-10T00:08:49.128Z,100783.91
2022-09-10T00:11:15.909Z,100795.47
2022-09-10T00:13:45.569Z,100791.97
2022-09-10T00:16:14.606Z,100793.72
2022-09-10T00:18:41.833Z,100785.75
2022-09-10T00:21:11.829Z,100789.34
2022-09-10T00:23:38.534Z,100785.84
2022-09-10T00:26:19.160Z,100781.41
2022-09-10T00:28:49.027Z,100781.41
2022-09-10T00:31:15.910Z,100780.56
2022-09-10T00:33:42.686Z,100788.50
2022-09-10T00:36:21.663Z,100783.22
2022-09-10T00:38:52.260Z,100788.59
2022-09-10T00:41:21.788Z,100794.03
2022-09-10T00:43:50.904Z,100787.00
2022-09-10T00:46:33.439Z,100795.78
2022-09-10T00:49:03.596Z,100788.72
2022-09-10T00:51:35.002Z,100784.28
2022-09-10T00:54:03.014Z,100789.53
2022-09-10T00:56:29.978Z,100788.69
2022-09-10T00:58:56.787Z,100793.97
2022-09-10T01:01:23.352Z,100798.41
2022-09-10T01:03:53.671Z,100793.03
2022-09-10T01:06:20.416Z,100792.03
2022-09-10T01:08:46.893Z,100784.06
2022-09-10T01:11:23.140Z,100786.63
2022-09-10T01:13:52.344Z,100784.03
2022-09-10T01:16:27.902Z,100785.06
2022-09-10T01:19:07.417Z,100788.66
2022-09-10T01:22:02.719Z,100786.06
2022-09-10T01:24:43.927Z,100785.22
2022-09-10T01:27:41.466Z,100783.44
2022-09-10T01:30:24.402Z,100789.75
2022-09-10T01:33:00.784Z,100789.88
2022-09-10T01:35:40.145Z,100789.09
2022-09-10T01:38:14.025Z,100792.66
2022-09-10T01:40:43.810Z,100797.06
2022-09-10T01:43:11.713Z,100799.72
2022-09-10T01:45:59.363Z,100794.41
2022-09-10T01:48:44.233Z,100803.22
2022-09-10T01:51:34.498Z,100800.69
2022-09-10T01:54:26.265Z,100791.91
2022-09-10T01:57:06.137Z,100797.38
2022-09-10T01:59:42.278Z,100793.00
2022-09-10T02:02:53.700Z,100788.56
2022-09-10T02:05:23.645Z,100785.97
2022-09-10T02:07:56.962Z,100785.06
2022-09-10T02:10:23.893Z,100790.38
2022-09-10T02:12:50.380Z,100786.00
2022-09-10T02:15:18.827Z,100787.78
2022-09-10T02:17:46.579Z,100787.78
2022-09-10T02:20:14.808Z,100786.13
2022-09-10T02:22:58.619Z,100784.47
2022-09-10T02:25:31.651Z,100783.53
2022-09-10T02:27:58.581Z,100787.06
2022-09-10T02:30:25.019Z,100787.91
2022-09-10T02:32:51.345Z,100779.91
2022-09-10T02:35:18.102Z,100786.13
2022-09-10T02:37:45.127Z,100788.84
2022-09-10T02:40:12.001Z,100791.50
2022-09-10T02:42:38.403Z,100792.31
2022-09-10T02:45:05.430Z,100788.72
2022-09-10T02:47:34.923Z,100781.59
2022-09-10T02:50:03.706Z,100786.00
2022-09-10T02:52:30.135Z,100786.06
2022-09-10T02:55:00.019Z,100777.28
2022-09-10T02:57:27.185Z,100779.88
2022-09-10T02:59:56.816Z,100782.63
2022-09-10T03:02:23.662Z,100784.47
2022-09-10T03:04:50.022Z,100773.88
2022-09-10T03:07:20.156Z,100774.78
2022-09-10T03:09:47.145Z,100773.00
2022-09-10T03:12:15.773Z,100777.38
2022-09-10T03:14:43.274Z,100778.22
2022-09-10T03:17:09.860Z,100779.09
2022-09-10T03:19:36.595Z,100771.13
2022-09-10T03:22:03.490Z,100764.91
2022-09-10T03:24:29.877Z,100767.50
2022-09-10T03:26:59.309Z,100772.88
2022-09-10T03:29:26.285Z,100772.88
2022-09-10T03:31:52.702Z,100770.25
2022-09-10T03:34:19.054Z,100773.88
2022-09-10T03:36:47.224Z,100774.78
2022-09-10T03:39:15.285Z,100766.84
2022-09-10T03:41:42.062Z,100771.19
2022-09-10T03:44:08.667Z,100761.38
2022-09-10T03:46:35.086Z,100763.97
2022-09-10T03:49:02.330Z,100764.78
2022-09-10T03:51:29.495Z,100762.09
2022-09-10T03:53:55.855Z,100763.84
2022-09-10T03:56:22.395Z,100759.44
2022-09-10T03:58:51.961Z,100763.91
2022-09-10T04:01:19.741Z,100766.63
2022-09-10T04:03:49.999Z,100766.56
2022-09-10T04:06:17.824Z,100756.03
2022-09-10T04:08:46.724Z,100757.81
2022-09-10T04:11:14.044Z,100758.69
2022-09-10T04:13:40.501Z,100760.41
2022-09-10T04:16:07.155Z,100763.06
2022-09-10T04:18:34.193Z,100759.59
2022-09-10T04:21:00.850Z,100764.03
2022-09-10T04:23:27.183Z,100764.97
2022-09-10T04:25:53.561Z,100763.13
2022-09-10T04:28:20.088Z,100755.97
2022-09-10T04:30:48.030Z,100759.44
2022-09-10T04:33:14.360Z,100757.69
2022-09-10T04:35:40.801Z,100761.19
2022-09-10T04:38:08.008Z,100761.19
2022-09-10T04:40:34.683Z,100767.28
2022-09-10T04:43:01.766Z,100766.34
2022-09-10T04:45:28.830Z,100771.59
2022-09-10T04:47:55.933Z,100771.59
2022-09-10T04:50:22.799Z,100770.66
2022-09-10T04:52:49.174Z,100778.56
2022-09-10T04:55:15.635Z,100775.09
2022-09-10T04:57:42.196Z,100783.91
2022-09-10T05:00:10.886Z,100781.25
2022-09-10T05:02:37.561Z,100778.56
2022-09-10T05:05:04.421Z,100782.06
2022-09-10T05:07:30.883Z,100778.56
2022-09-10T05:09:57.538Z,100782.91
2022-09-10T05:12:24.147Z,100782.00
2022-09-10T05:14:50.508Z,100782.03
2022-09-10T05:17:17.036Z,100776.75
2022-09-10T05:19:43.518Z,100784.72
2022-09-10T05:22:10.104Z,100775.09
2022-09-10T05:24:36.645Z,100782.97
2022-09-10T05:27:03.401Z,100786.44
2022-09-10T05:29:30.777Z,100786.44
2022-09-10T05:31:57.143Z,100785.53
2022-09-10T05:34:24.575Z,100792.59
2022-09-10T05:36:50.892Z,100792.59
2022-09-10T05:39:26.490Z,100785.44
2022-09-10T05:41:55.419Z,100792.53
2022-09-10T05:44:21.829Z,100792.47
2022-09-10T05:46:48.489Z,100791.53
2022-09-10T05:49:15.196Z,100791.47
2022-09-10T05:51:41.593Z,100796.69
2022-09-10T05:54:08.109Z,100788.59
2022-09-10T05:56:34.744Z,100794.75
2022-09-10T05:59:01.366Z,100799.16
2022-09-10T06:01:29.119Z,100804.44
2022-09-10T06:03:56.128Z,100799.09
2022-09-10T06:06:22.476Z,100801.69
2022-09-10T06:08:51.916Z,100795.41
2022-09-10T06:11:18.271Z,100797.09
2022-09-10T06:13:44.642Z,100810.28
2022-09-10T06:16:14.356Z,100797.88
2022-09-10T06:18:44.232Z,100807.66
2022-09-10T06:21:16.514Z,100811.16
2022-09-10T06:23:44.641Z,100813.81
2022-09-10T06:26:17.015Z,100821.72
2022-09-10T06:28:47.992Z,100819.94
2022-09-10T06:31:17.165Z,100813.75
2022-09-10T06:33:44.466Z,100824.38
2022-09-10T06:36:11.301Z,100819.00
2022-09-10T06:38:37.823Z,100814.56
2022-09-10T06:41:07.059Z,100823.31
2022-09-10T06:43:36.772Z,100821.59
2022-09-10T06:46:34.741Z,100835.66
2022-09-10T06:49:04.222Z,100834.88
2022-09-10T06:51:31.221Z,100839.25
2022-09-10T06:53:57.785Z,100847.16
2022-09-10T06:56:24.583Z,100844.44
2022-09-10T06:58:51.639Z,100842.63
2022-09-10T07:01:20.580Z,100843.50
2022-09-10T07:03:47.421Z,100850.56
2022-09-10T07:06:17.975Z,100854.03
2022-09-10T07:08:44.744Z,100861.97
2022-09-10T07:11:13.490Z,100870.81
2022-09-10T07:13:40.611Z,100864.56
2022-09-10T07:16:07.623Z,100864.56
2022-09-10T07:18:34.498Z,100870.66
2022-09-10T07:21:13.021Z,100874.09
2022-09-10T07:23:40.402Z,100874.97
2022-09-10T07:26:10.046Z,100880.28
2022-09-10T07:28:37.818Z,100876.69
2022-09-10T07:31:18.329Z,100884.66
2022-09-10T07:33:45.570Z,100882.91
2022-09-10T07:36:14.486Z,100886.47
2022-09-10T07:38:44.758Z,100892.63
2022-09-10T07:41:13.264Z,100885.53
2022-09-10T07:43:43.867Z,100887.25
2022-09-10T07:46:13.841Z,100888.09
2022-09-10T07:48:41.486Z,100897.78
2022-09-10T07:51:09.028Z,100900.38
2022-09-10T07:53:35.850Z,100894.97
2022-09-10T07:56:04.674Z,100907.31
2022-09-10T07:58:32.446Z,100901.13
2022-09-10T08:00:59.860Z,100910.81
2022-09-10T08:03:27.449Z,100901.03
2022-09-10T08:05:54.086Z,100916.88
2022-09-10T08:08:31.615Z,100911.50
2022-09-10T08:11:11.921Z,100906.06
2022-09-10T08:13:42.462Z,100916.50
2022-09-10T08:16:10.684Z,100916.28
2022-09-10T08:18:37.391Z,100935.59
2022-09-10T08:21:05.000Z,100937.25
2022-09-10T08:23:31.781Z,100943.34
2022-09-10T08:25:58.226Z,100938.84
2022-09-10T08:28:27.166Z,100943.16
2022-09-10T08:30:56.959Z,100936.81
2022-09-10T08:33:24.437Z,100950.03
2022-09-10T08:35:58.793Z,100949.09
2022-09-10T08:38:29.528Z,100954.31
2022-09-10T08:40:57.254Z,100953.34
2022-09-10T08:43:42.490Z,100962.03
2022-09-10T08:46:20.424Z,100965.47
2022-09-10T08:48:55.073Z,100966.28
2022-09-10T08:51:34.852Z,100976.84
2022-09-10T08:54:08.467Z,100972.41
2022-09-10T08:56:34.900Z,100973.19
2022-09-10T08:59:09.115Z,100983.69
2022-09-10T09:01:42.438Z,100987.22
2022-09-10T09:04:37.017Z,100982.66
2022-09-10T09:07:12.618Z,100996.69
2022-09-10T09:09:39.027Z,100996.50
2022-09-10T09:12:15.605Z,100990.03
2022-09-10T09:15:00.272Z,100999.47
2022-09-10T09:17:41.193Z,101002.84
2022-09-10T09:20:15.429Z,101003.16
2022-09-10T09:22:51.870Z,101002.63
2022-09-10T09:25:24.412Z,100998.03
2022-09-10T09:27:58.094Z,101004.94
2022-09-10T09:30:31.931Z,101007.78
2022-09-10T09:33:04.744Z,101008.06
2022-09-10T09:35:36.476Z,101011.84
2022-09-10T09:38:20.777Z,101009.44
2022-09-10T09:40:56.544Z,101010.59
2022-09-10T09:43:35.065Z,101017.00
2022-09-10T09:46:02.655Z,101025.13
2022-09-10T09:48:37.797Z,101031.47
2022-09-10T09:51:04.961Z,101026.28
2022-09-10T09:53:31.643Z,101036.94
2022-09-10T09:56:01.262Z,101042.28
2022-09-10T09:58:30.761Z,101042.19
2022-09-10T10:01:03.507Z,101050.13
2022-09-10T10:03:48.317Z,101045.59
2022-09-10T10:06:15.992Z,101046.41
2022-09-10T10:08:51.961Z,101043.47
2022-09-10T10:11:21.185Z,101052.44
2022-09-10T10:13:50.443Z,101058.09
2022-09-10T10:16:35.532Z,101045.88
2022-09-10T10:19:02.207Z,101058.66
2022-09-10T10:21:31.409Z,101054.84
2022-09-10T10:24:00.918Z,101056.44
2022-09-10T10:26:30.555Z,101055.66
2022-09-10T10:29:06.462Z,101050.69
2022-09-10T10:31:44.988Z,101062.13
2022-09-10T10:34:40.059Z,101052.06
2022-09-10T10:37:30.812Z,101045.53
2022-09-10T10:40:26.484Z,101066.63
2022-09-10T10:43:24.567Z,101066.03
2022-09-10T10:45:59.670Z,101071.44
2022-09-10T10:48:47.213Z,101072.69
2022-09-10T10:51:39.792Z,101082.38
2022-09-10T10:54:31.202Z,101073.53
2022-09-10T10:57:17.844Z,101073.56
2022-09-10T11:00:10.304Z,101073.00
2022-09-10T11:02:50.443Z,101076.53
2022-09-10T11:05:23.995Z,101075.97
2022-09-10T11:07:50.434Z,101080.56
2022-09-10T11:10:31.553Z,101086.63
2022-09-10T11:13:16.387Z,101098.38
2022-09-10T11:15:53.333Z,101100.31
2022-09-10T11:18:35.664Z,101112.72
2022-09-10T11:21:12.250Z,101111.53
2022-09-10T11:23:38.498Z,101113.84
2022-09-10T11:26:12.564Z,101114.25
2022-09-10T11:29:04.309Z,101108.25
2022-09-10T11:31:34.320Z,101112.91
2022-09-10T11:34:10.264Z,101114.84
2022-09-10T11:36:47.090Z,101107.47
2022-09-10T11:39:24.010Z,101117.00
2022-09-10T11:41:52.545Z,101123.31
2022-09-10T11:44:25.011Z,101121.66
2022-09-10T11:47:06.939Z,101129.91
2022-09-10T11:50:00.660Z,101123.78
2022-09-10T11:52:31.264Z,101134.53
2022-09-10T11:54:58.551Z,101130.91
2022-09-10T11:57:40.221Z,101135.44
2022-09-10T12:00:12.104Z,101134.72
2022-09-10T12:03:20.437Z,101130.66
2022-09-10T12:06:09.257Z,101138.28
2022-09-10T12:09:01.413Z,101140.13
2022-09-10T12:12:06.816Z,101136.63
2022-09-10T12:14:33.293Z,101139.25
2022-09-10T12:17:08.636Z,101131.78
2022-09-10T12:19:39.995Z,101141.31
2022-09-10T12:22:17.207Z,101136.69
2022-09-10T12:24:52.534Z,101146.94
2022-09-10T12:27:20.147Z,101137.81
2022-09-10T12:29:47.182Z,101142.97
2022-09-10T12:32:15.227Z,101138.81
2022-09-10T12:34:41.941Z,101136.38
2022-09-10T12:37:11.059Z,101153.47
2022-09-10T12:39:37.902Z,101150.78
2022-09-10T12:42:34.259Z,101156.63
2022-09-10T12:45:00.973Z,101150.69
2022-09-10T12:47:42.030Z,101151.47
2022-09-10T12:50:25.176Z,101150.19
2022-09-10T12:52:51.494Z,101151.06
2022-09-10T12:55:53.637Z,101157.06
2022-09-10T12:58:26.827Z,101154.97
2022-09-10T13:00:55.947Z,101164.09
2022-09-10T13:03:25.032Z,101167.00
2022-09-10T13:05:54.626Z,101162.28
2022-09-10T13:08:28.905Z,101167.78
2022-09-10T13:10:56.321Z,101166.47
2022-09-10T13:13:40.098Z,101167.84
2022-09-10T13:16:14.560Z,101172.81
2022-09-10T13:18:42.049Z,101168.28
2022-09-10T13:21:23.625Z,101172.88
2022-09-10T13:23:50.983Z,101177.13
2022-09-10T13:26:37.356Z,101183.91
2022-09-10T13:29:11.281Z,101181.56
2022-09-10T13:31:46.865Z,101197.25
2022-09-10T13:34:14.227Z,101173.56
2022-09-10T13:37:22.990Z,101184.09
2022-09-10T13:40:26.813Z,101186.47
2022-09-10T13:43:11.865Z,101189.19
2022-09-10T13:46:00.703Z,101192.22
2022-09-10T13:48:30.761Z,101186.97
2022-09-10T13:51:40.182Z,101203.91
2022-09-10T13:54:16.731Z,101204.56
2022-09-10T13:56:46.414Z,101201.75
2022-09-10T13:59:24.150Z,101200.31
2022-09-10T14:01:54.334Z,101206.13
2022-09-10T14:04:27.590Z,101205.38
2022-09-10T14:07:13.082Z,101213.88
2022-09-10T14:09:53.506Z,101209.84
2022-09-10T14:12:26.046Z,101214.50
2022-09-10T14:14:56.843Z,101221.63
2022-09-10T14:17:28.754Z,101214.94
2022-09-10T14:20:05.200Z,101219.69
2022-09-10T14:22:31.999Z,101221.81
2022-09-10T14:25:01.592Z,101220.09
2022-09-10T14:27:36.385Z,101232.81
2022-09-10T14:30:18.287Z,101231.31
2022-09-10T14:32:46.257Z,101226.09
2022-09-10T14:35:51.679Z,101235.19
2022-09-10T14:38:38.940Z,101242.31
2022-09-10T14:41:17.603Z,101243.91
2022-09-10T14:43:45.576Z,101239.69
2022-09-10T14:46:32.901Z,101243.44
2022-09-10T14:49:01.248Z,101248.91
2022-09-10T14:51:28.407Z,101246.47
2022-09-10T14:53:57.277Z,101251.28
2022-09-10T14:56:38.644Z,101252.13
2022-09-10T14:59:22.883Z,101258.38
2022-09-10T15:01:49.513Z,101263.00
2022-09-10T15:04:18.825Z,101256.84
2022-09-10T15:06:45.359Z,101253.47
2022-09-10T15:09:14.969Z,101258.75
2022-09-10T15:11:58.932Z,101257.16
2022-09-10T15:14:25.926Z,101258.97
2022-09-10T15:16:52.611Z,101268.00
2022-09-10T15:19:19.824Z,101262.69
2022-09-10T15:21:46.909Z,101267.31
2022-09-10T15:24:15.653Z,101272.13
2022-09-10T15:26:44.391Z,101267.84
2022-09-10T15:29:11.208Z,101271.59
2022-09-10T15:31:38.442Z,101278.84
2022-09-10T15:34:15.118Z,101283.41
2022-09-10T15:36:41.530Z,101285.09
2022-09-10T15:39:11.930Z,101285.78
2022-09-10T15:41:44.038Z,101285.59
2022-09-10T15:44:15.869Z,101286.47
2022-09-10T15:46:45.056Z,101299.00
2022-09-10T15:49:14.347Z,101293.84
2022-09-10T15:51:41.274Z,101296.69
2022-09-10T15:54:09.899Z,101302.94
2022-09-10T15:56:36.601Z,101302.00
2022-09-10T15:59:05.701Z,101302.88
2022-09-10T16:01:33.982Z,101303.75
2022-09-10T16:04:04.485Z,101303.00
2022-09-10T16:06:39.149Z,101294.09
2022-09-10T16:09:11.745Z,101296.06
2022-09-10T16:11:46.013Z,101302.38
2022-09-10T16:14:14.563Z,101309.47
2022-09-10T16:16:41.852Z,101305.25
2022-09-10T16:19:09.093Z,101313.63
2022-09-10T16:21:37.054Z,101311.25
2022-09-10T16:24:05.035Z,101319.38
2022-09-10T16:26:35.250Z,101323.09
2022-09-10T16:29:06.425Z,101317.13
2022-09-10T16:31:35.336Z,101327.03
2022-09-10T16:34:04.656Z,101330.59
2022-09-10T16:36:37.026Z,101337.75
2022-09-10T16:39:07.159Z,101337.75
2022-09-10T16:41:33.499Z,101335.09
2022-09-10T16:44:00.663Z,101340.72
2022-09-10T16:46:28.185Z,101348.84
2022-09-10T16:48:56.090Z,101347.22
2022-09-10T16:51:24.262Z,101358.84
2022-09-10T16:54:02.255Z,101366.00
2022-09-10T16:56:46.047Z,101358.25
2022-09-10T16:59:23.436Z,101361.00
2022-09-10T17:01:52.091Z,101372.59
2022-09-10T17:04:28.806Z,101374.59
2022-09-10T17:06:59.063Z,101375.59
2022-09-10T17:09:26.002Z,101377.44
2022-09-10T17:11:53.244Z,101375.94
2022-09-10T17:14:22.921Z,101385.78
2022-09-10T17:16:49.836Z,101386.78
2022-09-10T17:19:19.899Z,101392.22
2022-09-10T17:21:51.286Z,101388.03
2022-09-10T17:24:18.628Z,101394.47
2022-09-10T17:26:45.998Z,101395.72
2022-09-10T17:29:15.528Z,101395.97
2022-09-10T17:31:43.192Z,101400.63
2022-09-10T17:34:13.688Z,101414.16
2022-09-10T17:36:42.258Z,101415.13
2022-09-10T17:39:08.723Z,101407.28
2022-09-10T17:41:35.111Z,101413.56
2022-09-10T17:44:02.472Z,101411.78
2022-09-10T17:46:31.022Z,101420.09
2022-09-10T17:49:00.835Z,101407.72
2022-09-10T17:51:32.133Z,101415.78
2022-09-10T17:53:59.008Z,101420.22
2022-09-10T17:56:26.548Z,101425.66
2022-09-10T17:59:01.728Z,101430.16
2022-09-10T18:01:34.367Z,101438.25
2022-09-10T18:04:01.011Z,101434.88
2022-09-10T18:06:29.092Z,101445.66
2022-09-10T18:09:00.778Z,101444.00
2022-09-10T18:11:30.086Z,101446.72
2022-09-10T18:13:59.283Z,101453.03
2022-09-10T18:16:27.936Z,101447.81
2022-09-10T18:19:13.873Z,101448.81
2022-09-10T18:21:42.019Z,101456.09
2022-09-10T18:24:17.391Z,101465.97
2022-09-10T18:26:46.421Z,101469.63
2022-09-10T18:29:13.937Z,101474.16
2022-09-10T18:31:43.094Z,101480.53
2022-09-10T18:34:12.899Z,101484.28
2022-09-10T18:36:39.745Z,101483.50
2022-09-10T18:39:10.538Z,101488.00
2022-09-10T18:41:38.587Z,101488.97
2022-09-10T18:44:07.973Z,101496.97
2022-09-10T18:46:35.644Z,101497.91
2022-09-10T18:49:02.774Z,101504.16
2022-09-10T18:51:30.144Z,101508.59
2022-09-10T18:54:01.005Z,101509.59
2022-09-10T18:56:29.848Z,101511.41
2022-09-10T18:59:02.946Z,101512.47
2022-09-10T19:01:30.965Z,101520.47
2022-09-10T19:03:57.983Z,101519.75
2022-09-10T19:06:27.492Z,101528.63
2022-09-10T19:08:59.230Z,101531.38
2022-09-10T19:11:30.249Z,101536.81
2022-09-10T19:13:57.190Z,101535.06
2022-09-10T19:16:27.107Z,101547.59
2022-09-10T19:18:58.936Z,101543.19
2022-09-10T19:21:26.951Z,101552.97
2022-09-10T19:23:59.366Z,101546.81
2022-09-10T19:26:28.097Z,101554.81
2022-09-10T19:28:57.425Z,101564.53
2022-09-10T19:31:25.789Z,101568.13
2022-09-10T19:33:57.142Z,101565.47
2022-09-10T19:36:25.237Z,101572.63
2022-09-10T19:38:51.831Z,101576.22
2022-09-10T19:41:18.723Z,101571.81
2022-09-10T19:43:49.009Z,101576.28
2022-09-10T19:46:17.067Z,101581.63
2022-09-10T19:48:43.994Z,101580.84
2022-09-10T19:51:13.413Z,101587.09
2022-09-10T19:53:44.019Z,101587.22
2022-09-10T19:56:20.761Z,101581.91
2022-09-10T19:58:50.522Z,101583.69
2022-09-10T20:01:22.424Z,101588.19
2022-09-10T20:03:50.593Z,101591.78
2022-09-10T20:06:19.450Z,101591.78
2022-09-10T20:08:48.009Z,101598.97
2022-09-10T20:11:17.571Z,101598.22
2022-09-10T20:13:45.111Z,101603.63
2022-09-10T20:16:12.503Z,101603.63
2022-09-10T20:18:39.074Z,101605.34
2022-09-10T20:21:27.270Z,101609.75
2022-09-10T20:23:57.967Z,101610.59
2022-09-10T20:26:29.743Z,101607.03
2022-09-10T20:29:00.738Z,101617.63
2022-09-10T20:31:29.108Z,101615.94
2022-09-10T20:33:57.129Z,101614.19
2022-09-10T20:36:26.607Z,101613.28
2022-09-10T20:38:54.160Z,101612.47
2022-09-10T20:41:20.814Z,101622.31
2022-09-10T20:43:51.668Z,101626.75
2022-09-10T20:46:22.590Z,101623.31
2022-09-10T20:48:51.898Z,101630.44
2022-09-10T20:51:20.087Z,101619.84
2022-09-10T20:53:47.103Z,101620.75
2022-09-10T20:56:17.720Z,101618.16
2022-09-10T20:58:45.706Z,101625.28
2022-09-10T21:01:13.342Z,101620.91
2022-09-10T21:03:41.223Z,101621.03
2022-09-10T21:06:12.517Z,101629.03
2022-09-10T21:08:40.807Z,101635.34
2022-09-10T21:11:09.982Z,101633.59
2022-09-10T21:13:37.827Z,101636.31
2022-09-10T21:16:19.208Z,101631.97
2022-09-10T21:18:54.341Z,101638.16
2022-09-10T21:21:25.159Z,101646.19
2022-09-10T21:23:53.664Z,101641.69
2022-09-10T21:26:23.819Z,101642.66
2022-09-10T21:28:53.498Z,101648.00
2022-09-10T21:31:22.463Z,101643.59
2022-09-10T21:33:48.884Z,101648.97
2022-09-10T21:36:17.989Z,101649.03
2022-09-10T21:38:53.271Z,101650.91
2022-09-10T21:41:33.468Z,101645.63
2022-09-10T21:44:02.907Z,101654.53
2022-09-10T21:46:29.657Z,101654.63
2022-09-10T21:48:56.338Z,101661.69
2022-09-10T21:51:23.040Z,101667.94
2022-09-10T21:53:56.299Z,101668.81
2022-09-10T21:56:25.936Z,101669.69
2022-09-10T21:58:53.577Z,101675.97
2022-09-10T22:01:24.162Z,101671.53
2022-09-10T22:03:54.942Z,101674.22
2022-09-10T22:06:24.407Z,101667.16
2022-09-10T22:08:53.189Z,101673.41
2022-09-10T22:11:24.298Z,101676.09
2022-09-10T22:13:53.212Z,101672.56
2022-09-10T22:16:20.761Z,101683.22
2022-09-10T22:18:47.194Z,101680.56
2022-09-10T22:21:13.585Z,101693.91
2022-09-10T22:23:40.110Z,101693.09
2022-09-10T22:26:18.254Z,101696.63
2022-09-10T22:28:45.139Z,101701.09
2022-09-10T22:31:14.326Z,101705.56
2022-09-10T22:33:42.848Z,101691.44
2022-09-10T22:36:10.223Z,101692.38
2022-09-10T22:38:36.724Z,101686.22
2022-09-10T22:41:07.127Z,101695.13
2022-09-10T22:43:35.323Z,101699.56
2022-09-10T22:46:01.821Z,101710.19
2022-09-10T22:48:28.204Z,101708.44
2022-09-10T22:50:55.262Z,101704.91
2022-09-10T22:53:21.739Z,101718.25
2022-09-10T22:55:48.123Z,101715.66
2022-09-10T22:58:14.789Z,101719.19
2022-09-10T23:00:41.100Z,101725.44
2022-09-10T23:03:07.541Z,101720.13
2022-09-10T23:05:35.210Z,101721.91
2022-09-10T23:08:01.752Z,101728.09
2022-09-10T23:10:28.097Z,101731.63
2022-09-10T23:12:57.250Z,101736.09
2022-09-10T23:15:23.632Z,101729.03
2022-09-10T23:17:50.006Z,101731.69
2022-09-10T23:20:16.493Z,101729.97
2022-09-10T23:22:42.801Z,101726.47
2022-09-10T23:25:09.580Z,101723.81
2022-09-10T23:27:38.658Z,101728.28
2022-09-10T23:30:05.903Z,101728.25
2022-09-10T23:32:32.230Z,101729.13
2022-09-10T23:35:00.291Z,101740.66
2022-09-10T23:37:26.671Z,101739.78
2022-09-10T23:39:53.068Z,101732.72
2022-09-10T23:42:22.569Z,101734.50
2022-09-10T23:44:48.891Z,101738.97
2022-09-10T23:47:15.211Z,101745.19
2022-09-10T23:49:41.550Z,101743.41
2022-09-10T23:52:08.143Z,101739.88
2022-09-10T23:54:35.121Z,101744.31
2022-09-10T23:57:02.719Z,101753.16
2022-09-10T23:59:29.163Z,101750.50
